sensor_id;sensor_type;location;lat;lon;timestamp;pressure;altitude;pressure_sealevel;temperature
19644;BMP180;9970;-36.854;174.870;2024-03-08T00:02:38;101786.00;;;22.80
19644;BMP180;9970;-36.854;174.870;2024-03-08T00:05:11;101784.00;;;22.90
19644;BMP180;9970;-36.854;174.870;2024-03-08T00:07:49;101781.00;;;22.90
19644;BMP180;9970;-36.854;174.870;2024-03-08T00:10:22;101778.00;;;23.00
19644;BMP180;9970;-36.854;174.870;2024-03-08T00:12:56;101783.00;;;22.90
19644;BMP180;9970;-36.854;174.870;2024-03-08T00:15:29;101774.00;;;22.90
19644;BMP180;9970;-36.854;174.870;2024-03-08T00:18:03;101771.00;;;22.90
19644;BMP180;9970;-36.854;174.870;2024-03-08T00:20:36;101773.00;;;22.90
19644;BMP180;9970;-36.854;174.870;2024-03-08T00:23:10;101775.00;;;22.80
19644;BMP180;9970;-36.854;174.870;2024-03-08T00:25:43;101786.00;;;22.80
19644;BMP180;9970;-36.854;174.870;2024-03-08T00:28:16;101778.00;;;22.90
19644;BMP180;9970;-36.854;174.870;2024-03-08T00:30:50;101774.00;;;22.90
19644;BMP180;9970;-36.854;174.870;2024-03-08T00:33:25;101774.00;;;23.00
19644;BMP180;9970;-36.854;174.870;2024-03-08T00:35:58;101765.00;;;23.00
19644;BMP180;9970;-36.854;174.870;2024-03-08T00:38:31;101761.00;;;23.10
19644;BMP180;9970;-36.854;174.870;2024-03-08T00:41:05;101759.00;;;23.10
19644;BMP180;9970;-36.854;174.870;2024-03-08T00:43:38;101765.00;;;23.10
19644;BMP180;9970;-36.854;174.870;2024-03-08T00:46:16;101771.00;;;23.10
19644;BMP180;9970;-36.854;174.870;2024-03-08T00:48:46;101760.00;;;23.00
19644;BMP180;9970;-36.854;174.870;2024-03-08T00:51:19;101756.00;;;23.00
19644;BMP180;9970;-36.854;174.870;2024-03-08T00:53:52;101749.00;;;23.00
19644;BMP180;9970;-36.854;174.870;2024-03-08T00:56:25;101751.00;;;23.00
19644;BMP180;9970;-36.854;174.870;2024-03-08T00:58:58;101746.00;;;23.00
19644;BMP180;9970;-36.854;174.870;2024-03-08T01:01:31;101751.00;;;23.00
19644;BMP180;9970;-36.854;174.870;2024-03-08T01:04:04;101749.00;;;23.10
19644;BMP180;9970;-36.854;174.870;2024-03-08T01:06:39;101747.00;;;23.10
19644;BMP180;9970;-36.854;174.870;2024-03-08T01:09:12;101741.00;;;23.10
19644;BMP180;9970;-36.854;174.870;2024-03-08T01:11:45;101745.00;;;23.10
19644;BMP180;9970;-36.854;174.870;2024-03-08T01:14:18;101744.00;;;23.10
19644;BMP180;9970;-36.854;174.870;2024-03-08T01:16:52;101743.00;;;23.20
19644;BMP180;9970;-36.854;174.870;2024-03-08T01:19:30;101731.00;;;23.20
19644;BMP180;9970;-36.854;174.870;2024-03-08T01:22:04;101728.00;;;23.20
19644;BMP180;9970;-36.854;174.870;2024-03-08T01:24:37;101742.00;;;23.20
19644;BMP180;9970;-36.854;174.870;2024-03-08T01:27:10;101725.00;;;23.20
19644;BMP180;9970;-36.854;174.870;2024-03-08T01:29:43;101729.00;;;23.20
19644;BMP180;9970;-36.854;174.870;2024-03-08T01:32:16;101732.00;;;23.20
19644;BMP180;9970;-36.854;174.870;2024-03-08T01:34:50;101727.00;;;23.30
19644;BMP180;9970;-36.854;174.870;2024-03-08T01:37:23;101719.00;;;23.30
19644;BMP180;9970;-36.854;174.870;2024-03-08T01:39:56;101721.00;;;23.30
19644;BMP180;9970;-36.854;174.870;2024-03-08T01:42:29;101715.00;;;23.40
19644;BMP180;9970;-36.854;174.870;2024-03-08T01:45:02;101724.00;;;23.40
19644;BMP180;9970;-36.854;174.870;2024-03-08T01:47:36;101712.00;;;23.40
19644;BMP180;9970;-36.854;174.870;2024-03-08T01:50:10;101712.00;;;23.40
19644;BMP180;9970;-36.854;174.870;2024-03-08T01:52:43;101712.00;;;23.50
19644;BMP180;9970;-36.854;174.870;2024-03-08T01:55:16;101710.00;;;23.60
19644;BMP180;9970;-36.854;174.870;2024-03-08T01:57:53;101703.00;;;23.60
19644;BMP180;9970;-36.854;174.870;2024-03-08T02:00:27;101716.00;;;23.70
19644;BMP180;9970;-36.854;174.870;2024-03-08T02:03:01;101715.00;;;23.70
19644;BMP180;9970;-36.854;174.870;2024-03-08T02:05:40;101724.00;;;23.70
19644;BMP180;9970;-36.854;174.870;2024-03-08T02:08:14;101718.00;;;23.70
19644;BMP180;9970;-36.854;174.870;2024-03-08T02:10:47;101712.00;;;23.70
19644;BMP180;9970;-36.854;174.870;2024-03-08T02:13:20;101713.00;;;23.70
19644;BMP180;9970;-36.854;174.870;2024-03-08T02:15:53;101699.00;;;23.60
19644;BMP180;9970;-36.854;174.870;2024-03-08T02:18:27;101707.00;;;23.70
19644;BMP180;9970;-36.854;174.870;2024-03-08T02:21:01;101698.00;;;23.70
19644;BMP180;9970;-36.854;174.870;2024-03-08T02:23:37;101710.00;;;23.70
19644;BMP180;9970;-36.854;174.870;2024-03-08T02:26:11;101710.00;;;23.70
19644;BMP180;9970;-36.854;174.870;2024-03-08T02:28:44;101701.00;;;23.80
19644;BMP180;9970;-36.854;174.870;2024-03-08T02:31:17;101694.00;;;23.80
19644;BMP180;9970;-36.854;174.870;2024-03-08T02:33:50;101710.00;;;23.80
19644;BMP180;9970;-36.854;174.870;2024-03-08T02:36:23;101707.00;;;23.80
19644;BMP180;9970;-36.854;174.870;2024-03-08T02:38:56;101694.00;;;23.90
19644;BMP180;9970;-36.854;174.870;2024-03-08T02:41:29;101697.00;;;23.90
19644;BMP180;9970;-36.854;174.870;2024-03-08T02:44:03;101692.00;;;23.90
19644;BMP180;9970;-36.854;174.870;2024-03-08T02:46:36;101691.00;;;24.00
19644;BMP180;9970;-36.854;174.870;2024-03-08T02:49:09;101693.00;;;23.90
19644;BMP180;9970;-36.854;174.870;2024-03-08T02:51:42;101693.00;;;23.90
19644;BMP180;9970;-36.854;174.870;2024-03-08T02:54:16;101700.00;;;23.90
19644;BMP180;9970;-36.854;174.870;2024-03-08T02:56:50;101692.00;;;23.90
19644;BMP180;9970;-36.854;174.870;2024-03-08T02:59:23;101694.00;;;23.90
19644;BMP180;9970;-36.854;174.870;2024-03-08T03:01:56;101692.00;;;23.90
19644;BMP180;9970;-36.854;174.870;2024-03-08T03:04:29;101698.00;;;23.90
19644;BMP180;9970;-36.854;174.870;2024-03-08T03:07:02;101700.00;;;23.90
19644;BMP180;9970;-36.854;174.870;2024-03-08T03:09:36;101705.00;;;23.90
19644;BMP180;9970;-36.854;174.870;2024-03-08T03:12:09;101698.00;;;23.90
19644;BMP180;9970;-36.854;174.870;2024-03-08T03:14:42;101701.00;;;23.90
19644;BMP180;9970;-36.854;174.870;2024-03-08T03:17:15;101700.00;;;23.90
19644;BMP180;9970;-36.854;174.870;2024-03-08T03:19:52;101705.00;;;23.90
19644;BMP180;9970;-36.854;174.870;2024-03-08T03:22:26;101702.00;;;23.90
19644;BMP180;9970;-36.854;174.870;2024-03-08T03:24:59;101692.00;;;23.90
19644;BMP180;9970;-36.854;174.870;2024-03-08T03:27:33;101691.00;;;23.90
19644;BMP180;9970;-36.854;174.870;2024-03-08T03:30:07;101692.00;;;23.90
19644;BMP180;9970;-36.854;174.870;2024-03-08T03:32:56;101692.00;;;23.90
19644;BMP180;9970;-36.854;174.870;2024-03-08T03:35:31;101692.00;;;23.80
19644;BMP180;9970;-36.854;174.870;2024-03-08T03:38:04;101685.00;;;23.80
19644;BMP180;9970;-36.854;174.870;2024-03-08T03:40:40;101691.00;;;23.80
19644;BMP180;9970;-36.854;174.870;2024-03-08T03:43:13;101691.00;;;23.80
19644;BMP180;9970;-36.854;174.870;2024-03-08T03:45:46;101697.00;;;23.80
19644;BMP180;9970;-36.854;174.870;2024-03-08T03:48:19;101689.00;;;23.80
19644;BMP180;9970;-36.854;174.870;2024-03-08T03:50:52;101687.00;;;23.80
19644;BMP180;9970;-36.854;174.870;2024-03-08T03:53:25;101684.00;;;23.80
19644;BMP180;9970;-36.854;174.870;2024-03-08T03:55:58;101692.00;;;23.70
19644;BMP180;9970;-36.854;174.870;2024-03-08T03:58:31;101691.00;;;23.70
19644;BMP180;9970;-36.854;174.870;2024-03-08T04:01:05;101687.00;;;23.80
19644;BMP180;9970;-36.854;174.870;2024-03-08T04:03:40;101697.00;;;23.80
19644;BMP180;9970;-36.854;174.870;2024-03-08T04:06:14;101686.00;;;23.70
19644;BMP180;9970;-36.854;174.870;2024-03-08T04:08:47;101688.00;;;23.70
19644;BMP180;9970;-36.854;174.870;2024-03-08T04:11:23;101693.00;;;23.70
19644;BMP180;9970;-36.854;174.870;2024-03-08T04:13:56;101690.00;;;23.70
19644;BMP180;9970;-36.854;174.870;2024-03-08T04:16:30;101683.00;;;23.60
19644;BMP180;9970;-36.854;174.870;2024-03-08T04:19:02;101690.00;;;23.60
19644;BMP180;9970;-36.854;174.870;2024-03-08T04:21:36;101690.00;;;23.60
19644;BMP180;9970;-36.854;174.870;2024-03-08T04:24:12;101686.00;;;23.60
19644;BMP180;9970;-36.854;174.870;2024-03-08T04:26:47;101681.00;;;23.60
19644;BMP180;9970;-36.854;174.870;2024-03-08T04:29:20;101686.00;;;23.60
19644;BMP180;9970;-36.854;174.870;2024-03-08T04:31:53;101686.00;;;23.60
19644;BMP180;9970;-36.854;174.870;2024-03-08T04:34:27;101689.00;;;23.60
19644;BMP180;9970;-36.854;174.870;2024-03-08T04:37:00;101687.00;;;23.60
19644;BMP180;9970;-36.854;174.870;2024-03-08T04:39:33;101687.00;;;23.60
19644;BMP180;9970;-36.854;174.870;2024-03-08T04:42:06;101694.00;;;23.60
19644;BMP180;9970;-36.854;174.870;2024-03-08T04:44:41;101693.00;;;23.60
19644;BMP180;9970;-36.854;174.870;2024-03-08T04:47:14;101691.00;;;23.60
19644;BMP180;9970;-36.854;174.870;2024-03-08T04:49:48;101697.00;;;23.60
19644;BMP180;9970;-36.854;174.870;2024-03-08T04:52:21;101698.00;;;23.60
19644;BMP180;9970;-36.854;174.870;2024-03-08T04:54:54;101698.00;;;23.60
19644;BMP180;9970;-36.854;174.870;2024-03-08T04:57:27;101695.00;;;23.60
19644;BMP180;9970;-36.854;174.870;2024-03-08T04:59:59;101706.00;;;23.60
19644;BMP180;9970;-36.854;174.870;2024-03-08T05:02:32;101705.00;;;23.50
19644;BMP180;9970;-36.854;174.870;2024-03-08T05:05:06;101706.00;;;23.50
19644;BMP180;9970;-36.854;174.870;2024-03-08T05:07:41;101714.00;;;23.50
19644;BMP180;9970;-36.854;174.870;2024-03-08T05:10:15;101715.00;;;23.50
19644;BMP180;9970;-36.854;174.870;2024-03-08T05:12:48;101708.00;;;23.40
19644;BMP180;9970;-36.854;174.870;2024-03-08T05:15:22;101707.00;;;23.40
19644;BMP180;9970;-36.854;174.870;2024-03-08T05:17:55;101728.00;;;23.40
19644;BMP180;9970;-36.854;174.870;2024-03-08T05:20:29;101718.00;;;23.40
19644;BMP180;9970;-36.854;174.870;2024-03-08T05:23:02;101720.00;;;23.40
19644;BMP180;9970;-36.854;174.870;2024-03-08T05:25:36;101724.00;;;23.40
19644;BMP180;9970;-36.854;174.870;2024-03-08T05:28:09;101716.00;;;23.40
19644;BMP180;9970;-36.854;174.870;2024-03-08T05:30:42;101723.00;;;23.40
19644;BMP180;9970;-36.854;174.870;2024-03-08T05:33:15;101729.00;;;23.40
19644;BMP180;9970;-36.854;174.870;2024-03-08T05:35:48;101724.00;;;23.30
19644;BMP180;9970;-36.854;174.870;2024-03-08T05:38:21;101726.00;;;23.30
19644;BMP180;9970;-36.854;174.870;2024-03-08T05:40:54;101724.00;;;23.30
19644;BMP180;9970;-36.854;174.870;2024-03-08T05:43:27;101726.00;;;23.30
19644;BMP180;9970;-36.854;174.870;2024-03-08T05:46:00;101734.00;;;23.20
19644;BMP180;9970;-36.854;174.870;2024-03-08T05:48:35;101720.00;;;23.20
19644;BMP180;9970;-36.854;174.870;2024-03-08T05:51:08;101740.00;;;23.20
19644;BMP180;9970;-36.854;174.870;2024-03-08T05:53:41;101745.00;;;23.20
19644;BMP180;9970;-36.854;174.870;2024-03-08T05:56:14;101734.00;;;23.10
19644;BMP180;9970;-36.854;174.870;2024-03-08T05:58:47;101743.00;;;23.10
19644;BMP180;9970;-36.854;174.870;2024-03-08T06:01:25;101739.00;;;23.10
19644;BMP180;9970;-36.854;174.870;2024-03-08T06:03:58;101749.00;;;23.10
19644;BMP180;9970;-36.854;174.870;2024-03-08T06:06:30;101747.00;;;23.10
19644;BMP180;9970;-36.854;174.870;2024-03-08T06:09:04;101747.00;;;23.00
19644;BMP180;9970;-36.854;174.870;2024-03-08T06:11:45;101754.00;;;23.00
19644;BMP180;9970;-36.854;174.870;2024-03-08T06:14:18;101752.00;;;23.00
19644;BMP180;9970;-36.854;174.870;2024-03-08T06:16:51;101756.00;;;22.90
19644;BMP180;9970;-36.854;174.870;2024-03-08T06:19:24;101749.00;;;22.90
19644;BMP180;9970;-36.854;174.870;2024-03-08T06:21:57;101758.00;;;22.90
19644;BMP180;9970;-36.854;174.870;2024-03-08T06:24:31;101749.00;;;22.90
19644;BMP180;9970;-36.854;174.870;2024-03-08T06:27:06;101747.00;;;22.90
19644;BMP180;9970;-36.854;174.870;2024-03-08T06:29:40;101753.00;;;22.80
19644;BMP180;9970;-36.854;174.870;2024-03-08T06:32:13;101759.00;;;22.80
19644;BMP180;9970;-36.854;174.870;2024-03-08T06:34:46;101761.00;;;22.80
19644;BMP180;9970;-36.854;174.870;2024-03-08T06:37:19;101772.00;;;22.80
19644;BMP180;9970;-36.854;174.870;2024-03-08T06:39:53;101779.00;;;22.70
19644;BMP180;9970;-36.854;174.870;2024-03-08T06:42:27;101780.00;;;22.70
19644;BMP180;9970;-36.854;174.870;2024-03-08T06:45:02;101779.00;;;22.70
19644;BMP180;9970;-36.854;174.870;2024-03-08T06:47:40;101786.00;;;22.60
19644;BMP180;9970;-36.854;174.870;2024-03-08T06:50:13;101788.00;;;22.60
19644;BMP180;9970;-36.854;174.870;2024-03-08T06:52:46;101793.00;;;22.60
19644;BMP180;9970;-36.854;174.870;2024-03-08T06:55:20;101793.00;;;22.60
19644;BMP180;9970;-36.854;174.870;2024-03-08T06:57:53;101790.00;;;22.60
19644;BMP180;9970;-36.854;174.870;2024-03-08T07:00:26;101791.00;;;22.60
19644;BMP180;9970;-36.854;174.870;2024-03-08T07:03:01;101792.00;;;22.50
19644;BMP180;9970;-36.854;174.870;2024-03-08T07:05:35;101803.00;;;22.50
19644;BMP180;9970;-36.854;174.870;2024-03-08T07:08:08;101802.00;;;22.50
19644;BMP180;9970;-36.854;174.870;2024-03-08T07:10:40;101803.00;;;22.50
19644;BMP180;9970;-36.854;174.870;2024-03-08T07:13:13;101818.00;;;22.40
19644;BMP180;9970;-36.854;174.870;2024-03-08T07:15:46;101816.00;;;22.40
19644;BMP180;9970;-36.854;174.870;2024-03-08T07:18:19;101824.00;;;22.40
19644;BMP180;9970;-36.854;174.870;2024-03-08T07:20:53;101825.00;;;22.30
19644;BMP180;9970;-36.854;174.870;2024-03-08T07:23:26;101833.00;;;22.40
19644;BMP180;9970;-36.854;174.870;2024-03-08T07:26:19;101831.00;;;22.30
19644;BMP180;9970;-36.854;174.870;2024-03-08T07:28:52;101833.00;;;22.30
19644;BMP180;9970;-36.854;174.870;2024-03-08T07:31:29;101836.00;;;22.30
19644;BMP180;9970;-36.854;174.870;2024-03-08T07:34:15;101839.00;;;22.30
19644;BMP180;9970;-36.854;174.870;2024-03-08T07:36:48;101842.00;;;22.30
19644;BMP180;9970;-36.854;174.870;2024-03-08T07:39:22;101838.00;;;22.30
19644;BMP180;9970;-36.854;174.870;2024-03-08T07:41:55;101840.00;;;22.30
19644;BMP180;9970;-36.854;174.870;2024-03-08T07:44:28;101846.00;;;22.20
19644;BMP180;9970;-36.854;174.870;2024-03-08T07:47:02;101852.00;;;22.20
19644;BMP180;9970;-36.854;174.870;2024-03-08T07:49:39;101858.00;;;22.20
19644;BMP180;9970;-36.854;174.870;2024-03-08T07:52:12;101864.00;;;22.20
19644;BMP180;9970;-36.854;174.870;2024-03-08T07:54:47;101875.00;;;22.20
19644;BMP180;9970;-36.854;174.870;2024-03-08T07:57:20;101879.00;;;22.20
19644;BMP180;9970;-36.854;174.870;2024-03-08T07:59:53;101884.00;;;22.20
19644;BMP180;9970;-36.854;174.870;2024-03-08T08:02:25;101887.00;;;22.20
19644;BMP180;9970;-36.854;174.870;2024-03-08T08:04:58;101894.00;;;22.20
19644;BMP180;9970;-36.854;174.870;2024-03-08T08:07:31;101898.00;;;22.20
19644;BMP180;9970;-36.854;174.870;2024-03-08T08:10:06;101895.00;;;22.20
19644;BMP180;9970;-36.854;174.870;2024-03-08T08:12:39;101893.00;;;22.10
19644;BMP180;9970;-36.854;174.870;2024-03-08T08:15:13;101896.00;;;22.10
19644;BMP180;9970;-36.854;174.870;2024-03-08T08:17:49;101901.00;;;22.10
19644;BMP180;9970;-36.854;174.870;2024-03-08T08:20:26;101909.00;;;22.10
19644;BMP180;9970;-36.854;174.870;2024-03-08T08:23:00;101903.00;;;22.10
19644;BMP180;9970;-36.854;174.870;2024-03-08T08:25:37;101917.00;;;22.10
19644;BMP180;9970;-36.854;174.870;2024-03-08T08:28:10;101917.00;;;22.10
19644;BMP180;9970;-36.854;174.870;2024-03-08T08:30:43;101920.00;;;22.00
19644;BMP180;9970;-36.854;174.870;2024-03-08T08:33:16;101923.00;;;22.00
19644;BMP180;9970;-36.854;174.870;2024-03-08T08:35:50;101916.00;;;22.00
19644;BMP180;9970;-36.854;174.870;2024-03-08T08:38:25;101930.00;;;22.00
19644;BMP180;9970;-36.854;174.870;2024-03-08T08:40:59;101928.00;;;22.00
19644;BMP180;9970;-36.854;174.870;2024-03-08T08:43:35;101928.00;;;22.00
19644;BMP180;9970;-36.854;174.870;2024-03-08T08:46:12;101936.00;;;22.00
19644;BMP180;9970;-36.854;174.870;2024-03-08T08:48:51;101934.00;;;22.00
19644;BMP180;9970;-36.854;174.870;2024-03-08T08:51:24;101939.00;;;21.90
19644;BMP180;9970;-36.854;174.870;2024-03-08T08:53:58;101945.00;;;21.90
19644;BMP180;9970;-36.854;174.870;2024-03-08T08:56:31;101951.00;;;21.90
19644;BMP180;9970;-36.854;174.870;2024-03-08T08:59:05;101945.00;;;21.90
19644;BMP180;9970;-36.854;174.870;2024-03-08T09:01:39;101961.00;;;21.90
19644;BMP180;9970;-36.854;174.870;2024-03-08T09:04:12;101963.00;;;21.90
19644;BMP180;9970;-36.854;174.870;2024-03-08T09:06:46;101966.00;;;21.90
19644;BMP180;9970;-36.854;174.870;2024-03-08T09:09:19;101964.00;;;21.80
19644;BMP180;9970;-36.854;174.870;2024-03-08T09:11:57;101967.00;;;21.80
19644;BMP180;9970;-36.854;174.870;2024-03-08T09:14:30;101962.00;;;21.80
19644;BMP180;9970;-36.854;174.870;2024-03-08T09:17:03;101961.00;;;21.80
19644;BMP180;9970;-36.854;174.870;2024-03-08T09:19:41;101967.00;;;21.80
19644;BMP180;9970;-36.854;174.870;2024-03-08T09:22:14;101971.00;;;21.80
19644;BMP180;9970;-36.854;174.870;2024-03-08T09:24:47;101979.00;;;21.80
19644;BMP180;9970;-36.854;174.870;2024-03-08T09:27:20;101975.00;;;21.70
19644;BMP180;9970;-36.854;174.870;2024-03-08T09:29:53;101973.00;;;21.70
19644;BMP180;9970;-36.854;174.870;2024-03-08T09:32:26;101982.00;;;21.70
19644;BMP180;9970;-36.854;174.870;2024-03-08T09:34:59;101986.00;;;21.70
19644;BMP180;9970;-36.854;174.870;2024-03-08T09:37:32;101984.00;;;21.70
19644;BMP180;9970;-36.854;174.870;2024-03-08T09:40:07;101981.00;;;21.70
19644;BMP180;9970;-36.854;174.870;2024-03-08T09:42:49;101983.00;;;21.70
19644;BMP180;9970;-36.854;174.870;2024-03-08T09:45:22;101980.00;;;21.60
19644;BMP180;9970;-36.854;174.870;2024-03-08T09:47:55;101987.00;;;21.60
19644;BMP180;9970;-36.854;174.870;2024-03-08T09:50:28;101975.00;;;21.60
19644;BMP180;9970;-36.854;174.870;2024-03-08T09:53:02;101971.00;;;21.60
19644;BMP180;9970;-36.854;174.870;2024-03-08T09:55:39;101972.00;;;21.60
19644;BMP180;9970;-36.854;174.870;2024-03-08T09:58:15;101975.00;;;21.60
19644;BMP180;9970;-36.854;174.870;2024-03-08T10:00:50;101969.00;;;21.60
19644;BMP180;9970;-36.854;174.870;2024-03-08T10:03:23;101975.00;;;21.60
19644;BMP180;9970;-36.854;174.870;2024-03-08T10:05:58;101986.00;;;21.50
19644;BMP180;9970;-36.854;174.870;2024-03-08T10:08:33;101973.00;;;21.50
19644;BMP180;9970;-36.854;174.870;2024-03-08T10:11:08;101985.00;;;21.50
19644;BMP180;9970;-36.854;174.870;2024-03-08T10:13:42;101980.00;;;21.50
19644;BMP180;9970;-36.854;174.870;2024-03-08T10:16:15;101980.00;;;21.50
19644;BMP180;9970;-36.854;174.870;2024-03-08T10:18:48;101980.00;;;21.50
19644;BMP180;9970;-36.854;174.870;2024-03-08T10:21:21;101965.00;;;21.40
19644;BMP180;9970;-36.854;174.870;2024-03-08T10:23:55;101966.00;;;21.40
19644;BMP180;9970;-36.854;174.870;2024-03-08T10:26:29;101967.00;;;21.40
19644;BMP180;9970;-36.854;174.870;2024-03-08T10:29:03;101965.00;;;21.40
19644;BMP180;9970;-36.854;174.870;2024-03-08T10:31:36;101967.00;;;21.40
19644;BMP180;9970;-36.854;174.870;2024-03-08T10:34:10;101962.00;;;21.40
19644;BMP180;9970;-36.854;174.870;2024-03-08T10:36:45;101977.00;;;21.30
19644;BMP180;9970;-36.854;174.870;2024-03-08T10:39:24;101973.00;;;21.40
19644;BMP180;9970;-36.854;174.870;2024-03-08T10:42:02;101977.00;;;21.30
19644;BMP180;9970;-36.854;174.870;2024-03-08T10:47:29;101967.00;;;21.30
19644;BMP180;9970;-36.854;174.870;2024-03-08T10:50:10;101969.00;;;21.30
19644;BMP180;9970;-36.854;174.870;2024-03-08T10:52:44;101965.00;;;21.30
19644;BMP180;9970;-36.854;174.870;2024-03-08T10:55:19;101963.00;;;21.20
19644;BMP180;9970;-36.854;174.870;2024-03-08T10:57:52;101971.00;;;21.20
19644;BMP180;9970;-36.854;174.870;2024-03-08T11:00:27;101972.00;;;21.20
19644;BMP180;9970;-36.854;174.870;2024-03-08T11:03:01;101978.00;;;21.20
19644;BMP180;9970;-36.854;174.870;2024-03-08T11:05:39;101983.00;;;21.20
19644;BMP180;9970;-36.854;174.870;2024-03-08T11:08:19;101980.00;;;21.20
19644;BMP180;9970;-36.854;174.870;2024-03-08T11:10:54;101991.00;;;21.10
19644;BMP180;9970;-36.854;174.870;2024-03-08T11:13:37;101985.00;;;21.10
19644;BMP180;9970;-36.854;174.870;2024-03-08T11:16:36;101987.00;;;21.10
19644;BMP180;9970;-36.854;174.870;2024-03-08T11:18:49;101983.00;;;21.00
19644;BMP180;9970;-36.854;174.870;2024-03-08T11:21:23;101992.00;;;21.00
19644;BMP180;9970;-36.854;174.870;2024-03-08T11:24:13;101992.00;;;20.90
19644;BMP180;9970;-36.854;174.870;2024-03-08T11:26:47;101993.00;;;20.90
19644;BMP180;9970;-36.854;174.870;2024-03-08T11:32:16;101992.00;;;20.80
19644;BMP180;9970;-36.854;174.870;2024-03-08T11:34:50;101997.00;;;20.80
19644;BMP180;9970;-36.854;174.870;2024-03-08T11:37:23;101997.00;;;20.70
19644;BMP180;9970;-36.854;174.870;2024-03-08T11:39:56;101997.00;;;20.70
19644;BMP180;9970;-36.854;174.870;2024-03-08T11:42:30;101992.00;;;20.60
19644;BMP180;9970;-36.854;174.870;2024-03-08T11:45:10;102000.00;;;20.60
19644;BMP180;9970;-36.854;174.870;2024-03-08T11:47:43;101994.00;;;20.60
19644;BMP180;9970;-36.854;174.870;2024-03-08T11:50:18;101992.00;;;20.50
19644;BMP180;9970;-36.854;174.870;2024-03-08T11:52:52;101993.00;;;20.50
19644;BMP180;9970;-36.854;174.870;2024-03-08T11:55:25;101989.00;;;20.50
19644;BMP180;9970;-36.854;174.870;2024-03-08T11:58:03;101994.00;;;20.40
19644;BMP180;9970;-36.854;174.870;2024-03-08T12:00:38;101990.00;;;20.40
19644;BMP180;9970;-36.854;174.870;2024-03-08T12:03:12;101993.00;;;20.30
19644;BMP180;9970;-36.854;174.870;2024-03-08T12:05:45;101991.00;;;20.30
19644;BMP180;9970;-36.854;174.870;2024-03-08T12:08:19;101997.00;;;20.30
19644;BMP180;9970;-36.854;174.870;2024-03-08T12:10:52;101990.00;;;20.20
19644;BMP180;9970;-36.854;174.870;2024-03-08T12:13:30;101997.00;;;20.20
19644;BMP180;9970;-36.854;174.870;2024-03-08T12:16:05;101990.00;;;20.20
19644;BMP180;9970;-36.854;174.870;2024-03-08T12:18:39;101986.00;;;20.10
19644;BMP180;9970;-36.854;174.870;2024-03-08T12:21:12;101994.00;;;20.10
19644;BMP180;9970;-36.854;174.870;2024-03-08T12:23:46;101988.00;;;20.20
19644;BMP180;9970;-36.854;174.870;2024-03-08T12:26:27;101993.00;;;20.10
19644;BMP180;9970;-36.854;174.870;2024-03-08T12:29:27;101994.00;;;20.20
19644;BMP180;9970;-36.854;174.870;2024-03-08T12:32:05;101984.00;;;20.20
19644;BMP180;9970;-36.854;174.870;2024-03-08T12:34:39;101989.00;;;20.20
19644;BMP180;9970;-36.854;174.870;2024-03-08T12:37:12;101986.00;;;20.10
19644;BMP180;9970;-36.854;174.870;2024-03-08T12:39:45;101990.00;;;20.20
19644;BMP180;9970;-36.854;174.870;2024-03-08T12:42:18;101989.00;;;20.10
19644;BMP180;9970;-36.854;174.870;2024-03-08T12:44:51;101980.00;;;20.10
19644;BMP180;9970;-36.854;174.870;2024-03-08T12:47:24;101992.00;;;20.10
19644;BMP180;9970;-36.854;174.870;2024-03-08T12:49:58;101985.00;;;20.10
19644;BMP180;9970;-36.854;174.870;2024-03-08T12:52:31;101983.00;;;20.00
19644;BMP180;9970;-36.854;174.870;2024-03-08T12:55:05;101981.00;;;20.00
19644;BMP180;9970;-36.854;174.870;2024-03-08T12:57:39;101981.00;;;20.00
19644;BMP180;9970;-36.854;174.870;2024-03-08T13:00:12;101993.00;;;20.00
19644;BMP180;9970;-36.854;174.870;2024-03-08T13:02:47;101989.00;;;20.00
19644;BMP180;9970;-36.854;174.870;2024-03-08T13:05:21;101983.00;;;19.90
19644;BMP180;9970;-36.854;174.870;2024-03-08T13:07:54;101988.00;;;19.90
19644;BMP180;9970;-36.854;174.870;2024-03-08T13:10:28;101986.00;;;19.90
19644;BMP180;9970;-36.854;174.870;2024-03-08T13:13:01;101993.00;;;19.80
19644;BMP180;9970;-36.854;174.870;2024-03-08T13:15:34;101999.00;;;19.80
19644;BMP180;9970;-36.854;174.870;2024-03-08T13:18:07;101997.00;;;19.80
19644;BMP180;9970;-36.854;174.870;2024-03-08T13:20:41;101989.00;;;19.70
19644;BMP180;9970;-36.854;174.870;2024-03-08T13:23:16;101993.00;;;19.70
19644;BMP180;9970;-36.854;174.870;2024-03-08T13:25:49;101984.00;;;19.70
19644;BMP180;9970;-36.854;174.870;2024-03-08T13:28:22;101979.00;;;19.70
19644;BMP180;9970;-36.854;174.870;2024-03-08T13:30:56;101971.00;;;19.70
19644;BMP180;9970;-36.854;174.870;2024-03-08T13:33:30;101971.00;;;19.60
19644;BMP180;9970;-36.854;174.870;2024-03-08T13:36:05;101981.00;;;19.60
19644;BMP180;9970;-36.854;174.870;2024-03-08T13:38:43;101976.00;;;19.50
19644;BMP180;9970;-36.854;174.870;2024-03-08T13:41:17;101981.00;;;19.50
19644;BMP180;9970;-36.854;174.870;2024-03-08T13:43:51;101970.00;;;19.50
19644;BMP180;9970;-36.854;174.870;2024-03-08T13:46:24;101969.00;;;19.50
19644;BMP180;9970;-36.854;174.870;2024-03-08T13:48:59;101967.00;;;19.40
19644;BMP180;9970;-36.854;174.870;2024-03-08T13:51:33;101970.00;;;19.40
19644;BMP180;9970;-36.854;174.870;2024-03-08T13:54:07;101968.00;;;19.40
19644;BMP180;9970;-36.854;174.870;2024-03-08T13:56:41;101972.00;;;19.40
19644;BMP180;9970;-36.854;174.870;2024-03-08T13:59:15;101966.00;;;19.30
19644;BMP180;9970;-36.854;174.870;2024-03-08T14:01:49;101966.00;;;19.30
19644;BMP180;9970;-36.854;174.870;2024-03-08T14:04:22;101963.00;;;19.30
19644;BMP180;9970;-36.854;174.870;2024-03-08T14:06:55;101972.00;;;19.30
19644;BMP180;9970;-36.854;174.870;2024-03-08T14:09:35;101966.00;;;19.20
19644;BMP180;9970;-36.854;174.870;2024-03-08T14:12:10;101962.00;;;19.20
19644;BMP180;9970;-36.854;174.870;2024-03-08T14:14:43;101958.00;;;19.20
19644;BMP180;9970;-36.854;174.870;2024-03-08T14:17:15;101957.00;;;19.20